sensor_id;sensor_type;location;lat;lon;timestamp;P1;durP1;ratioP1;P2;durP2;ratioP2
12511;SDS011;6321;53.798;10.382;2022-08-18T00:00:50;14.10;;;11.60;;
12511;SDS011;6321;53.798;10.382;2022-08-18T00:03:16;12.60;;;10.80;;
12511;SDS011;6321;53.798;10.382;2022-08-18T00:05:44;12.07;;;10.73;;
12511;SDS011;6321;53.798;10.382;2022-08-18T00:08:10;12.43;;;11.33;;
12511;SDS011;6321;53.798;10.382;2022-08-18T00:10:39;11.80;;;10.67;;
12511;SDS011;6321;53.798;10.382;2022-08-18T00:13:06;14.63;;;9.83;;
12511;SDS011;6321;53.798;10.382;2022-08-18T00:15:32;12.47;;;10.27;;
12511;SDS011;6321;53.798;10.382;2022-08-18T00:17:58;11.23;;;9.87;;
12511;SDS011;6321;53.798;10.382;2022-08-18T00:20:23;11.27;;;10.20;;
12511;SDS011;6321;53.798;10.382;2022-08-18T00:22:49;11.47;;;9.33;;
12511;SDS011;6321;53.798;10.382;2022-08-18T00:25:17;10.63;;;8.67;;
12511;SDS011;6321;53.798;10.382;2022-08-18T00:27:44;11.00;;;8.33;;
12511;SDS011;6321;53.798;10.382;2022-08-18T00:30:14;9.47;;;8.33;;
12511;SDS011;6321;53.798;10.382;2022-08-18T00:32:44;9.90;;;8.83;;
12511;SDS011;6321;53.798;10.382;2022-08-18T00:35:26;9.13;;;8.10;;
12511;SDS011;6321;53.798;10.382;2022-08-18T00:37:56;8.43;;;7.63;;
12511;SDS011;6321;53.798;10.382;2022-08-18T00:40:25;12.17;;;8.33;;
12511;SDS011;6321;53.798;10.382;2022-08-18T00:42:55;8.93;;;8.03;;
12511;SDS011;6321;53.798;10.382;2022-08-18T00:45:25;8.47;;;7.57;;
12511;SDS011;6321;53.798;10.382;2022-08-18T00:47:57;10.63;;;7.77;;
12511;SDS011;6321;53.798;10.382;2022-08-18T00:50:28;10.80;;;7.47;;
12511;SDS011;6321;53.798;10.382;2022-08-18T00:53:33;10.37;;;6.80;;
12511;SDS011;6321;53.798;10.382;2022-08-18T00:56:07;8.50;;;7.10;;
12511;SDS011;6321;53.798;10.382;2022-08-18T00:58:36;8.63;;;7.07;;
12511;SDS011;6321;53.798;10.382;2022-08-18T01:01:13;13.53;;;8.47;;
12511;SDS011;6321;53.798;10.382;2022-08-18T01:03:43;7.10;;;6.47;;
12511;SDS011;6321;53.798;10.382;2022-08-18T01:06:20;10.00;;;7.00;;
12511;SDS011;6321;53.798;10.382;2022-08-18T01:08:50;8.30;;;6.50;;
12511;SDS011;6321;53.798;10.382;2022-08-18T01:11:16;9.57;;;6.80;;
12511;SDS011;6321;53.798;10.382;2022-08-18T01:13:42;7.10;;;6.40;;
12511;SDS011;6321;53.798;10.382;2022-08-18T01:16:09;7.40;;;6.13;;
12511;SDS011;6321;53.798;10.382;2022-08-18T01:18:54;8.20;;;6.30;;
12511;SDS011;6321;53.798;10.382;2022-08-18T01:21:42;6.83;;;6.10;;
12511;SDS011;6321;53.798;10.382;2022-08-18T01:24:22;7.77;;;6.53;;
12511;SDS011;6321;53.798;10.382;2022-08-18T01:27:12;10.70;;;6.30;;
12511;SDS011;6321;53.798;10.382;2022-08-18T01:29:45;9.27;;;5.87;;
12511;SDS011;6321;53.798;10.382;2022-08-18T01:32:17;6.93;;;6.40;;
12511;SDS011;6321;53.798;10.382;2022-08-18T01:34:49;6.90;;;5.70;;
12511;SDS011;6321;53.798;10.382;2022-08-18T01:37:17;7.67;;;6.07;;
12511;SDS011;6321;53.798;10.382;2022-08-18T01:39:45;7.60;;;5.70;;
12511;SDS011;6321;53.798;10.382;2022-08-18T01:42:12;7.30;;;5.73;;
12511;SDS011;6321;53.798;10.382;2022-08-18T01:44:41;8.37;;;5.80;;
12511;SDS011;6321;53.798;10.382;2022-08-18T01:47:08;7.00;;;6.00;;
12511;SDS011;6321;53.798;10.382;2022-08-18T01:49:36;8.47;;;5.90;;
12511;SDS011;6321;53.798;10.382;2022-08-18T01:52:03;8.50;;;5.50;;
12511;SDS011;6321;53.798;10.382;2022-08-18T01:54:31;9.97;;;5.90;;
12511;SDS011;6321;53.798;10.382;2022-08-18T01:56:57;10.13;;;5.77;;
12511;SDS011;6321;53.798;10.382;2022-08-18T01:59:23;10.40;;;5.60;;
12511;SDS011;6321;53.798;10.382;2022-08-18T02:01:50;10.93;;;6.63;;
12511;SDS011;6321;53.798;10.382;2022-08-18T02:04:20;11.73;;;5.77;;
12511;SDS011;6321;53.798;10.382;2022-08-18T02:06:51;7.60;;;6.20;;
12511;SDS011;6321;53.798;10.382;2022-08-18T02:09:17;7.67;;;6.07;;
12511;SDS011;6321;53.798;10.382;2022-08-18T02:11:42;9.20;;;5.53;;
12511;SDS011;6321;53.798;10.382;2022-08-18T02:14:08;8.00;;;6.87;;
12511;SDS011;6321;53.798;10.382;2022-08-18T02:16:34;9.13;;;6.47;;
12511;SDS011;6321;53.798;10.382;2022-08-18T02:19:00;9.40;;;6.73;;
12511;SDS011;6321;53.798;10.382;2022-08-18T02:21:26;10.87;;;7.30;;
12511;SDS011;6321;53.798;10.382;2022-08-18T02:23:51;10.87;;;6.40;;
12511;SDS011;6321;53.798;10.382;2022-08-18T02:26:17;7.97;;;7.13;;
12511;SDS011;6321;53.798;10.382;2022-08-18T02:28:44;9.47;;;6.83;;
12511;SDS011;6321;53.798;10.382;2022-08-18T02:31:13;8.90;;;7.40;;
12511;SDS011;6321;53.798;10.382;2022-08-18T02:33:42;11.10;;;7.33;;
12511;SDS011;6321;53.798;10.382;2022-08-18T02:36:09;12.07;;;9.37;;
12511;SDS011;6321;53.798;10.382;2022-08-18T02:38:36;13.43;;;10.10;;
12511;SDS011;6321;53.798;10.382;2022-08-18T02:41:03;11.37;;;10.17;;
12511;SDS011;6321;53.798;10.382;2022-08-18T02:43:33;12.83;;;9.73;;
12511;SDS011;6321;53.798;10.382;2022-08-18T02:45:59;10.80;;;9.63;;
12511;SDS011;6321;53.798;10.382;2022-08-18T02:48:25;12.67;;;9.13;;
12511;SDS011;6321;53.798;10.382;2022-08-18T02:51:06;10.63;;;8.23;;
12511;SDS011;6321;53.798;10.382;2022-08-18T02:53:43;10.73;;;8.33;;
12511;SDS011;6321;53.798;10.382;2022-08-18T02:56:13;10.73;;;9.00;;
12511;SDS011;6321;53.798;10.382;2022-08-18T02:58:47;10.80;;;8.93;;
12511;SDS011;6321;53.798;10.382;2022-08-18T03:01:14;9.30;;;8.40;;
12511;SDS011;6321;53.798;10.382;2022-08-18T03:03:40;13.57;;;8.87;;
12511;SDS011;6321;53.798;10.382;2022-08-18T03:06:05;9.83;;;8.83;;
12511;SDS011;6321;53.798;10.382;2022-08-18T03:08:31;10.40;;;9.40;;
12511;SDS011;6321;53.798;10.382;2022-08-18T03:10:58;11.40;;;9.80;;
12511;SDS011;6321;53.798;10.382;2022-08-18T03:13:24;12.33;;;10.03;;
12511;SDS011;6321;53.798;10.382;2022-08-18T03:15:50;12.53;;;11.23;;
12511;SDS011;6321;53.798;10.382;2022-08-18T03:18:17;14.13;;;12.67;;
12511;SDS011;6321;53.798;10.382;2022-08-18T03:20:42;15.37;;;13.17;;
12511;SDS011;6321;53.798;10.382;2022-08-18T03:23:09;14.33;;;12.93;;
12511;SDS011;6321;53.798;10.382;2022-08-18T03:25:41;13.30;;;12.00;;
12511;SDS011;6321;53.798;10.382;2022-08-18T03:28:11;13.67;;;12.33;;
12511;SDS011;6321;53.798;10.382;2022-08-18T03:30:38;15.37;;;12.60;;
12511;SDS011;6321;53.798;10.382;2022-08-18T03:33:03;12.90;;;11.60;;
12511;SDS011;6321;53.798;10.382;2022-08-18T03:35:29;13.43;;;12.13;;
12511;SDS011;6321;53.798;10.382;2022-08-18T03:37:58;14.00;;;12.67;;
12511;SDS011;6321;53.798;10.382;2022-08-18T03:40:24;14.03;;;12.80;;
12511;SDS011;6321;53.798;10.382;2022-08-18T03:42:50;13.67;;;12.40;;
12511;SDS011;6321;53.798;10.382;2022-08-18T03:45:16;16.77;;;13.50;;
12511;SDS011;6321;53.798;10.382;2022-08-18T03:47:41;13.73;;;12.33;;
12511;SDS011;6321;53.798;10.382;2022-08-18T03:50:09;14.73;;;13.43;;
12511;SDS011;6321;53.798;10.382;2022-08-18T03:52:36;14.63;;;13.13;;
12511;SDS011;6321;53.798;10.382;2022-08-18T03:55:03;15.60;;;14.27;;
12511;SDS011;6321;53.798;10.382;2022-08-18T03:57:30;14.70;;;13.40;;
12511;SDS011;6321;53.798;10.382;2022-08-18T03:59:57;15.27;;;13.50;;
12511;SDS011;6321;53.798;10.382;2022-08-18T04:02:24;15.53;;;14.03;;
12511;SDS011;6321;53.798;10.382;2022-08-18T04:04:50;15.87;;;14.40;;
12511;SDS011;6321;53.798;10.382;2022-08-18T04:07:15;15.30;;;13.80;;
12511;SDS011;6321;53.798;10.382;2022-08-18T04:09:41;15.70;;;14.27;;
12511;SDS011;6321;53.798;10.382;2022-08-18T04:12:10;15.20;;;13.77;;
12511;SDS011;6321;53.798;10.382;2022-08-18T04:14:39;16.37;;;13.67;;
12511;SDS011;6321;53.798;10.382;2022-08-18T04:17:07;16.83;;;14.80;;
12511;SDS011;6321;53.798;10.382;2022-08-18T04:19:34;15.73;;;13.57;;
12511;SDS011;6321;53.798;10.382;2022-08-18T04:22:00;15.70;;;14.23;;
12511;SDS011;6321;53.798;10.382;2022-08-18T04:24:30;14.60;;;13.23;;
12511;SDS011;6321;53.798;10.382;2022-08-18T04:26:57;13.50;;;12.30;;
12511;SDS011;6321;53.798;10.382;2022-08-18T04:29:25;14.67;;;13.17;;
12511;SDS011;6321;53.798;10.382;2022-08-18T04:31:52;13.30;;;12.23;;
12511;SDS011;6321;53.798;10.382;2022-08-18T04:34:18;14.87;;;13.47;;
12511;SDS011;6321;53.798;10.382;2022-08-18T04:36:46;14.23;;;12.90;;
12511;SDS011;6321;53.798;10.382;2022-08-18T04:39:13;13.23;;;11.93;;
12511;SDS011;6321;53.798;10.382;2022-08-18T04:41:40;12.53;;;11.43;;
12511;SDS011;6321;53.798;10.382;2022-08-18T04:44:07;14.83;;;13.47;;
12511;SDS011;6321;53.798;10.382;2022-08-18T04:46:44;14.77;;;13.37;;
12511;SDS011;6321;53.798;10.382;2022-08-18T04:49:12;14.93;;;13.47;;
12511;SDS011;6321;53.798;10.382;2022-08-18T04:51:40;15.30;;;13.70;;
12511;SDS011;6321;53.798;10.382;2022-08-18T04:54:08;14.37;;;13.17;;
12511;SDS011;6321;53.798;10.382;2022-08-18T04:56:36;15.40;;;14.10;;
12511;SDS011;6321;53.798;10.382;2022-08-18T04:59:07;15.87;;;14.40;;
12511;SDS011;6321;53.798;10.382;2022-08-18T05:01:41;15.93;;;14.33;;
12511;SDS011;6321;53.798;10.382;2022-08-18T05:04:09;16.67;;;13.23;;
12511;SDS011;6321;53.798;10.382;2022-08-18T05:06:37;14.60;;;13.30;;
12511;SDS011;6321;53.798;10.382;2022-08-18T05:09:06;17.03;;;15.53;;
12511;SDS011;6321;53.798;10.382;2022-08-18T05:11:34;14.70;;;13.20;;
12511;SDS011;6321;53.798;10.382;2022-08-18T05:14:01;15.43;;;13.00;;
12511;SDS011;6321;53.798;10.382;2022-08-18T05:16:29;15.50;;;14.20;;
12511;SDS011;6321;53.798;10.382;2022-08-18T05:19:00;14.70;;;13.40;;
12511;SDS011;6321;53.798;10.382;2022-08-18T05:21:29;14.97;;;13.47;;
12511;SDS011;6321;53.798;10.382;2022-08-18T05:23:56;14.90;;;13.60;;
12511;SDS011;6321;53.798;10.382;2022-08-18T05:26:22;14.50;;;13.10;;
12511;SDS011;6321;53.798;10.382;2022-08-18T05:28:48;15.67;;;14.07;;
12511;SDS011;6321;53.798;10.382;2022-08-18T05:31:15;16.17;;;14.57;;
12511;SDS011;6321;53.798;10.382;2022-08-18T05:33:43;16.43;;;14.93;;
12511;SDS011;6321;53.798;10.382;2022-08-18T05:36:20;17.57;;;15.87;;
12511;SDS011;6321;53.798;10.382;2022-08-18T05:41:51;21.60;;;19.50;;
12511;SDS011;6321;53.798;10.382;2022-08-18T05:44:34;19.47;;;17.70;;
12511;SDS011;6321;53.798;10.382;2022-08-18T05:47:14;18.30;;;16.70;;
12511;SDS011;6321;53.798;10.382;2022-08-18T05:49:46;17.33;;;15.73;;
12511;SDS011;6321;53.798;10.382;2022-08-18T05:55:04;18.40;;;16.80;;
12511;SDS011;6321;53.798;10.382;2022-08-18T05:57:58;19.20;;;17.27;;
12511;SDS011;6321;53.798;10.382;2022-08-18T06:00:46;18.17;;;16.33;;
12511;SDS011;6321;53.798;10.382;2022-08-18T06:05:59;19.30;;;17.27;;
12511;SDS011;6321;53.798;10.382;2022-08-18T06:08:42;17.83;;;16.23;;
12511;SDS011;6321;53.798;10.382;2022-08-18T06:11:10;15.63;;;14.23;;
12511;SDS011;6321;53.798;10.382;2022-08-18T06:13:40;16.50;;;14.93;;
12511;SDS011;6321;53.798;10.382;2022-08-18T06:16:10;16.17;;;14.77;;
12511;SDS011;6321;53.798;10.382;2022-08-18T06:24:17;16.67;;;15.33;;
12511;SDS011;6321;53.798;10.382;2022-08-18T06:27:00;16.70;;;15.03;;
12511;SDS011;6321;53.798;10.382;2022-08-18T06:29:50;17.20;;;15.67;;
12511;SDS011;6321;53.798;10.382;2022-08-18T06:35:02;16.80;;;15.10;;
12511;SDS011;6321;53.798;10.382;2022-08-18T06:37:33;18.67;;;16.77;;
12511;SDS011;6321;53.798;10.382;2022-08-18T06:40:37;16.87;;;15.53;;
12511;SDS011;6321;53.798;10.382;2022-08-18T06:43:04;16.97;;;15.30;;
12511;SDS011;6321;53.798;10.382;2022-08-18T06:45:35;16.73;;;15.23;;
12511;SDS011;6321;53.798;10.382;2022-08-18T06:48:47;17.07;;;15.50;;
12511;SDS011;6321;53.798;10.382;2022-08-18T06:51:19;17.43;;;15.57;;
12511;SDS011;6321;53.798;10.382;2022-08-18T06:53:50;16.37;;;14.80;;
12511;SDS011;6321;53.798;10.382;2022-08-18T06:56:20;16.40;;;14.83;;
12511;SDS011;6321;53.798;10.382;2022-08-18T07:01:38;18.30;;;14.33;;
12511;SDS011;6321;53.798;10.382;2022-08-18T07:04:04;15.80;;;14.27;;
12511;SDS011;6321;53.798;10.382;2022-08-18T07:06:30;14.73;;;13.37;;
12511;SDS011;6321;53.798;10.382;2022-08-18T07:11:59;15.73;;;14.03;;
12511;SDS011;6321;53.798;10.382;2022-08-18T07:14:30;16.23;;;14.63;;
12511;SDS011;6321;53.798;10.382;2022-08-18T07:17:06;15.57;;;14.07;;
12511;SDS011;6321;53.798;10.382;2022-08-18T07:19:34;15.83;;;14.30;;
12511;SDS011;6321;53.798;10.382;2022-08-18T07:22:19;16.33;;;14.73;;
12511;SDS011;6321;53.798;10.382;2022-08-18T07:24:47;15.77;;;14.30;;
12511;SDS011;6321;53.798;10.382;2022-08-18T07:27:15;18.07;;;14.47;;
12511;SDS011;6321;53.798;10.382;2022-08-18T07:32:34;15.73;;;14.07;;
12511;SDS011;6321;53.798;10.382;2022-08-18T07:35:09;15.90;;;14.40;;
12511;SDS011;6321;53.798;10.382;2022-08-18T07:40:26;15.77;;;14.20;;
12511;SDS011;6321;53.798;10.382;2022-08-18T07:43:29;16.23;;;14.70;;
12511;SDS011;6321;53.798;10.382;2022-08-18T07:46:05;14.87;;;13.43;;
12511;SDS011;6321;53.798;10.382;2022-08-18T07:48:35;15.40;;;13.50;;
12511;SDS011;6321;53.798;10.382;2022-08-18T07:56:02;14.70;;;13.10;;
12511;SDS011;6321;53.798;10.382;2022-08-18T08:01:06;15.83;;;14.20;;
12511;SDS011;6321;53.798;10.382;2022-08-18T08:06:42;15.80;;;14.50;;
12511;SDS011;6321;53.798;10.382;2022-08-18T08:09:18;15.53;;;13.87;;
12511;SDS011;6321;53.798;10.382;2022-08-18T08:12:01;15.63;;;14.30;;
12511;SDS011;6321;53.798;10.382;2022-08-18T08:14:41;15.37;;;13.90;;
12511;SDS011;6321;53.798;10.382;2022-08-18T08:17:10;14.63;;;13.13;;
12511;SDS011;6321;53.798;10.382;2022-08-18T08:22:22;17.67;;;16.07;;
12511;SDS011;6321;53.798;10.382;2022-08-18T08:30:11;17.63;;;15.83;;
12511;SDS011;6321;53.798;10.382;2022-08-18T08:33:02;19.20;;;17.37;;
12511;SDS011;6321;53.798;10.382;2022-08-18T08:35:38;17.63;;;16.03;;
12511;SDS011;6321;53.798;10.382;2022-08-18T08:38:17;19.73;;;17.93;;
12511;SDS011;6321;53.798;10.382;2022-08-18T08:41:16;18.50;;;16.57;;
12511;SDS011;6321;53.798;10.382;2022-08-18T08:44:05;21.20;;;19.47;;
12511;SDS011;6321;53.798;10.382;2022-08-18T08:51:49;24.90;;;22.67;;
12511;SDS011;6321;53.798;10.382;2022-08-18T08:54:23;24.27;;;22.27;;
12511;SDS011;6321;53.798;10.382;2022-08-18T08:56:55;25.00;;;22.80;;
12511;SDS011;6321;53.798;10.382;2022-08-18T08:59:24;27.63;;;25.13;;
12511;SDS011;6321;53.798;10.382;2022-08-18T09:07:18;27.60;;;25.10;;
12511;SDS011;6321;53.798;10.382;2022-08-18T09:18:30;35.80;;;32.27;;
12511;SDS011;6321;53.798;10.382;2022-08-18T09:24:03;37.63;;;34.23;;
12511;SDS011;6321;53.798;10.382;2022-08-18T09:26:39;41.63;;;37.63;;
12511;SDS011;6321;53.798;10.382;2022-08-18T09:29:15;39.57;;;35.77;;
12511;SDS011;6321;53.798;10.382;2022-08-18T09:31:47;40.17;;;36.07;;
12511;SDS011;6321;53.798;10.382;2022-08-18T09:39:42;45.27;;;40.30;;
12511;SDS011;6321;53.798;10.382;2022-08-18T09:45:38;45.07;;;40.20;;
12511;SDS011;6321;53.798;10.382;2022-08-18T09:50:38;52.30;;;43.70;;
12511;SDS011;6321;53.798;10.382;2022-08-18T09:53:31;50.67;;;43.60;;
12511;SDS011;6321;53.798;10.382;2022-08-18T09:56:17;49.20;;;42.67;;
12511;SDS011;6321;53.798;10.382;2022-08-18T10:01:58;45.83;;;39.50;;
12511;SDS011;6321;53.798;10.382;2022-08-18T10:04:30;48.90;;;39.90;;
12511;SDS011;6321;53.798;10.382;2022-08-18T10:07:44;44.80;;;39.17;;
12511;SDS011;6321;53.798;10.382;2022-08-18T10:10:11;45.87;;;41.00;;
12511;SDS011;6321;53.798;10.382;2022-08-18T10:13:01;40.93;;;36.63;;
12511;SDS011;6321;53.798;10.382;2022-08-18T10:15:47;43.63;;;39.03;;
12511;SDS011;6321;53.798;10.382;2022-08-18T10:18:27;40.40;;;36.17;;
12511;SDS011;6321;53.798;10.382;2022-08-18T10:21:23;40.93;;;36.47;;
12511;SDS011;6321;53.798;10.382;2022-08-18T10:28:55;35.93;;;32.20;;
12511;SDS011;6321;53.798;10.382;2022-08-18T10:31:22;35.40;;;31.57;;
12511;SDS011;6321;53.798;10.382;2022-08-18T10:36:37;34.17;;;30.50;;
12511;SDS011;6321;53.798;10.382;2022-08-18T10:39:10;32.90;;;29.60;;
12511;SDS011;6321;53.798;10.382;2022-08-18T10:41:37;31.57;;;28.27;;
12511;SDS011;6321;53.798;10.382;2022-08-18T10:44:12;31.47;;;28.20;;
12511;SDS011;6321;53.798;10.382;2022-08-18T10:46:41;31.77;;;28.37;;
12511;SDS011;6321;53.798;10.382;2022-08-18T10:51:42;30.37;;;27.03;;
12511;SDS011;6321;53.798;10.382;2022-08-18T10:57:37;29.90;;;26.97;;
12511;SDS011;6321;53.798;10.382;2022-08-18T11:00:09;29.73;;;26.63;;
12511;SDS011;6321;53.798;10.382;2022-08-18T11:05:32;27.77;;;24.97;;
12511;SDS011;6321;53.798;10.382;2022-08-18T11:07:59;26.50;;;24.00;;
12511;SDS011;6321;53.798;10.382;2022-08-18T11:10:38;26.07;;;23.67;;
12511;SDS011;6321;53.798;10.382;2022-08-18T11:26:37;24.83;;;22.43;;
12511;SDS011;6321;53.798;10.382;2022-08-18T11:31:59;23.63;;;21.13;;
12511;SDS011;6321;53.798;10.382;2022-08-18T11:37:06;21.43;;;19.43;;
12511;SDS011;6321;53.798;10.382;2022-08-18T11:39:49;21.07;;;19.00;;
12511;SDS011;6321;53.798;10.382;2022-08-18T11:42:17;20.57;;;18.50;;
12511;SDS011;6321;53.798;10.382;2022-08-18T11:44:50;21.90;;;19.80;;
12511;SDS011;6321;53.798;10.382;2022-08-18T11:47:19;25.10;;;20.70;;
12511;SDS011;6321;53.798;10.382;2022-08-18T11:49:56;24.23;;;21.87;;
12511;SDS011;6321;53.798;10.382;2022-08-18T11:52:32;21.40;;;19.53;;
12511;SDS011;6321;53.798;10.382;2022-08-18T11:55:18;21.20;;;19.10;;
12511;SDS011;6321;53.798;10.382;2022-08-18T11:57:56;22.53;;;20.50;;
12511;SDS011;6321;53.798;10.382;2022-08-18T12:06:09;20.73;;;18.77;;
12511;SDS011;6321;53.798;10.382;2022-08-18T12:09:15;21.33;;;19.33;;
12511;SDS011;6321;53.798;10.382;2022-08-18T12:15:01;23.07;;;20.97;;
12511;SDS011;6321;53.798;10.382;2022-08-18T12:17:31;21.37;;;18.90;;
12511;SDS011;6321;53.798;10.382;2022-08-18T12:19:57;20.73;;;18.63;;
12511;SDS011;6321;53.798;10.382;2022-08-18T12:22:26;21.23;;;19.33;;
12511;SDS011;6321;53.798;10.382;2022-08-18T12:24:54;20.77;;;18.67;;
12511;SDS011;6321;53.798;10.382;2022-08-18T12:27:21;21.60;;;19.60;;
12511;SDS011;6321;53.798;10.382;2022-08-18T12:29:49;20.47;;;18.37;;
12511;SDS011;6321;53.798;10.382;2022-08-18T12:32:17;21.53;;;19.60;;
12511;SDS011;6321;53.798;10.382;2022-08-18T12:34:44;21.90;;;19.83;;
12511;SDS011;6321;53.798;10.382;2022-08-18T12:37:10;19.70;;;17.77;;
12511;SDS011;6321;53.798;10.382;2022-08-18T12:39:41;19.53;;;17.60;;
12511;SDS011;6321;53.798;10.382;2022-08-18T12:42:08;19.50;;;17.70;;
12511;SDS011;6321;53.798;10.382;2022-08-18T12:44:34;19.03;;;17.27;;
12511;SDS011;6321;53.798;10.382;2022-08-18T12:47:00;20.20;;;18.30;;
12511;SDS011;6321;53.798;10.382;2022-08-18T12:49:28;17.00;;;15.50;;
12511;SDS011;6321;53.798;10.382;2022-08-18T12:51:55;20.27;;;18.27;;
12511;SDS011;6321;53.798;10.382;2022-08-18T12:54:21;21.13;;;19.33;;
12511;SDS011;6321;53.798;10.382;2022-08-18T12:56:49;19.73;;;17.83;;
12511;SDS011;6321;53.798;10.382;2022-08-18T12:59:18;21.17;;;19.17;;
12511;SDS011;6321;53.798;10.382;2022-08-18T13:01:44;20.13;;;18.43;;
12511;SDS011;6321;53.798;10.382;2022-08-18T13:04:10;16.63;;;15.13;;
12511;SDS011;6321;53.798;10.382;2022-08-18T13:06:38;17.33;;;14.73;;
12511;SDS011;6321;53.798;10.382;2022-08-18T13:09:13;17.40;;;15.87;;
12511;SDS011;6321;53.798;10.382;2022-08-18T13:11:39;15.77;;;14.40;;
12511;SDS011;6321;53.798;10.382;2022-08-18T13:14:06;14.40;;;13.13;;
12511;SDS011;6321;53.798;10.382;2022-08-18T13:16:33;15.77;;;14.37;;
12511;SDS011;6321;53.798;10.382;2022-08-18T13:19:00;17.33;;;15.93;;
12511;SDS011;6321;53.798;10.382;2022-08-18T13:21:27;16.50;;;14.93;;
12511;SDS011;6321;53.798;10.382;2022-08-18T13:23:53;16.53;;;15.23;;
12511;SDS011;6321;53.798;10.382;2022-08-18T13:26:20;18.20;;;16.50;;
12511;SDS011;6321;53.798;10.382;2022-08-18T13:28:51;17.67;;;16.27;;
12511;SDS011;6321;53.798;10.382;2022-08-18T13:31:16;16.33;;;14.83;;
12511;SDS011;6321;53.798;10.382;2022-08-18T13:33:42;19.10;;;17.30;;
12511;SDS011;6321;53.798;10.382;2022-08-18T13:36:08;16.53;;;15.10;;
12511;SDS011;6321;53.798;10.382;2022-08-18T13:38:34;17.27;;;15.80;;
12511;SDS011;6321;53.798;10.382;2022-08-18T13:41:01;15.63;;;14.33;;
12511;SDS011;6321;53.798;10.382;2022-08-18T13:43:36;15.13;;;13.83;;
12511;SDS011;6321;53.798;10.382;2022-08-18T13:46:06;14.60;;;13.47;;
12511;SDS011;6321;53.798;10.382;2022-08-18T13:48:37;15.60;;;14.30;;
12511;SDS011;6321;53.798;10.382;2022-08-18T13:51:04;14.40;;;13.20;;
12511;SDS011;6321;53.798;10.382;2022-08-18T13:53:33;15.67;;;14.17;;
12511;SDS011;6321;53.798;10.382;2022-08-18T13:56:01;15.83;;;14.43;;
12511;SDS011;6321;53.798;10.382;2022-08-18T13:58:27;14.40;;;13.20;;
12511;SDS011;6321;53.798;10.382;2022-08-18T14:00:55;15.23;;;13.73;;
12511;SDS011;6321;53.798;10.382;2022-08-18T14:03:28;14.07;;;12.77;;
12511;SDS011;6321;53.798;10.382;2022-08-18T14:05:56;14.10;;;12.97;;
12511;SDS011;6321;53.798;10.382;2022-08-18T14:08:24;13.87;;;12.57;;
12511;SDS011;6321;53.798;10.382;2022-08-18T14:10:55;13.60;;;12.23;;
12511;SDS011;6321;53.798;10.382;2022-08-18T14:13:24;14.03;;;12.83;;
12511;SDS011;6321;53.798;10.382;2022-08-18T14:15:52;14.00;;;12.80;;
12511;SDS011;6321;53.798;10.382;2022-08-18T14:18:19;14.17;;;12.73;;
12511;SDS011;6321;53.798;10.382;2022-08-18T14:20:45;11.07;;;10.13;;
12511;SDS011;6321;53.798;10.382;2022-08-18T14:23:29;12.70;;;11.47;;
12511;SDS011;6321;53.798;10.382;2022-08-18T14:26:10;13.47;;;12.13;;
12511;SDS011;6321;53.798;10.382;2022-08-18T14:28:55;12.93;;;11.90;;
12511;SDS011;6321;53.798;10.382;2022-08-18T14:31:21;14.10;;;12.80;;
12511;SDS011;6321;53.798;10.382;2022-08-18T14:33:48;13.73;;;12.53;;
12511;SDS011;6321;53.798;10.382;2022-08-18T14:36:14;14.60;;;12.87;;
12511;SDS011;6321;53.798;10.382;2022-08-18T14:38:41;13.43;;;12.33;;
12511;SDS011;6321;53.798;10.382;2022-08-18T14:41:08;18.03;;;16.53;;
12511;SDS011;6321;53.798;10.382;2022-08-18T14:43:36;15.17;;;13.90;;
12511;SDS011;6321;53.798;10.382;2022-08-18T14:46:02;14.90;;;13.70;;
12511;SDS011;6321;53.798;10.382;2022-08-18T14:48:29;15.17;;;13.77;;
12511;SDS011;6321;53.798;10.382;2022-08-18T14:50:57;17.63;;;16.20;;
12511;SDS011;6321;53.798;10.382;2022-08-18T14:53:26;15.50;;;14.13;;
12511;SDS011;6321;53.798;10.382;2022-08-18T14:55:55;14.70;;;13.20;;
12511;SDS011;6321;53.798;10.382;2022-08-18T14:58:23;13.30;;;12.20;;
12511;SDS011;6321;53.798;10.382;2022-08-18T15:00:51;16.83;;;15.33;;
12511;SDS011;6321;53.798;10.382;2022-08-18T15:03:18;14.67;;;13.37;;
12511;SDS011;6321;53.798;10.382;2022-08-18T15:05:45;15.33;;;13.93;;
12511;SDS011;6321;53.798;10.382;2022-08-18T15:08:11;15.13;;;13.73;;
12511;SDS011;6321;53.798;10.382;2022-08-18T15:10:37;16.30;;;14.70;;
12511;SDS011;6321;53.798;10.382;2022-08-18T15:13:02;18.20;;;15.50;;
12511;SDS011;6321;53.798;10.382;2022-08-18T15:15:29;16.37;;;15.07;;
12511;SDS011;6321;53.798;10.382;2022-08-18T15:17:58;15.20;;;13.80;;
12511;SDS011;6321;53.798;10.382;2022-08-18T15:20:25;15.87;;;14.57;;
12511;SDS011;6321;53.798;10.382;2022-08-18T15:22:52;16.17;;;14.70;;
12511;SDS011;6321;53.798;10.382;2022-08-18T15:25:36;16.37;;;14.37;;
12511;SDS011;6321;53.798;10.382;2022-08-18T15:28:09;16.30;;;14.83;;
12511;SDS011;6321;53.798;10.382;2022-08-18T15:30:34;17.27;;;15.50;;
12511;SDS011;6321;53.798;10.382;2022-08-18T15:33:02;16.27;;;14.83;;
12511;SDS011;6321;53.798;10.382;2022-08-18T15:35:28;15.63;;;14.27;;
12511;SDS011;6321;53.798;10.382;2022-08-18T15:37:54;16.60;;;15.20;;
12511;SDS011;6321;53.798;10.382;2022-08-18T15:40:23;17.67;;;16.17;;
12511;SDS011;6321;53.798;10.382;2022-08-18T15:42:54;16.93;;;15.33;;
12511;SDS011;6321;53.798;10.382;2022-08-18T15:45:27;17.23;;;15.67;;
12511;SDS011;6321;53.798;10.382;2022-08-18T15:47:56;16.97;;;15.40;;
12511;SDS011;6321;53.798;10.382;2022-08-18T15:50:24;16.43;;;15.03;;
12511;SDS011;6321;53.798;10.382;2022-08-18T15:53:00;17.70;;;16.20;;
12511;SDS011;6321;53.798;10.382;2022-08-18T15:55:29;14.13;;;12.93;;
12511;SDS011;6321;53.798;10.382;2022-08-18T15:57:56;15.73;;;14.23;;
12511;SDS011;6321;53.798;10.382;2022-08-18T16:00:23;15.50;;;14.17;;
12511;SDS011;6321;53.798;10.382;2022-08-18T16:02:54;14.67;;;13.50;;
12511;SDS011;6321;53.798;10.382;2022-08-18T16:05:21;15.37;;;13.97;;
12511;SDS011;6321;53.798;10.382;2022-08-18T16:07:49;14.63;;;13.33;;
12511;SDS011;6321;53.798;10.382;2022-08-18T16:10:17;15.20;;;12.03;;
12511;SDS011;6321;53.798;10.382;2022-08-18T16:12:44;12.67;;;11.70;;
12511;SDS011;6321;53.798;10.382;2022-08-18T16:15:11;12.93;;;11.83;;
12511;SDS011;6321;53.798;10.382;2022-08-18T16:17:38;12.50;;;11.53;;
12511;SDS011;6321;53.798;10.382;2022-08-18T16:20:04;11.87;;;10.77;;
12511;SDS011;6321;53.798;10.382;2022-08-18T16:22:32;11.63;;;10.47;;
12511;SDS011;6321;53.798;10.382;2022-08-18T16:24:59;10.20;;;9.40;;
12511;SDS011;6321;53.798;10.382;2022-08-18T16:27:27;10.60;;;9.70;;
12511;SDS011;6321;53.798;10.382;2022-08-18T16:29:56;11.07;;;10.23;;
12511;SDS011;6321;53.798;10.382;2022-08-18T16:32:22;10.40;;;9.67;;
12511;SDS011;6321;53.798;10.382;2022-08-18T16:34:48;10.27;;;9.47;;
12511;SDS011;6321;53.798;10.382;2022-08-18T16:37:16;10.73;;;9.83;;
12511;SDS011;6321;53.798;10.382;2022-08-18T16:39:43;10.33;;;9.43;;
12511;SDS011;6321;53.798;10.382;2022-08-18T16:42:08;11.27;;;10.07;;
12511;SDS011;6321;53.798;10.382;2022-08-18T16:44:36;10.13;;;9.37;;
12511;SDS011;6321;53.798;10.382;2022-08-18T16:47:03;10.23;;;9.53;;
12511;SDS011;6321;53.798;10.382;2022-08-18T16:49:30;10.33;;;9.43;;
12511;SDS011;6321;53.798;10.382;2022-08-18T16:51:59;9.53;;;8.70;;
12511;SDS011;6321;53.798;10.382;2022-08-18T16:54:28;10.30;;;9.50;;